KAUS

Austin-Bergstrom International Airport

Austin, Texas, USA
METAR KAUS 150053Z 16011KT 10SM FEW085 FEW100 SCT200 33/19 A2988 RMK AO2 SLP107 T03330194 $
Observed Flight Rules
Aug-15 @ 00:53 UTC (15 minutes ago) Visual Flight Rules
Wind Visibility Clouds
160° at 11 knots 10 miles
  • Few at 8,500' AGL
  • Few at 10,000' AGL
  • Scattered at 20,000' AGL
Temperatures Readings
Current 33°C / 91°F
Dewpoint 19°C / 66°F
Humidity 44%
Altimeter 29.88" Hg
Pressure 1010.7 hPa
Elevation 166
METAR KAUS 150053Z 16011KT 10SM FEW085 FEW100 SCT200 33/19 A2988 RMK AO2 SLP107 T03330194 $
Observed Flight Rules
Aug-15 @ 00:53 UTC
(15 minutes ago)
VFR
Wind Visibility
160° at 11 knots 10 miles
Clouds
  • Few at 8,500' AGL
  • Few at 10,000' AGL
  • Scattered at 20,000' AGL
Temperature Dewpoint
33°C / 91°F 19°C / 66°F
Humidity Altimeter Pressure
44% 29.88" Hg 1010.7 hPa